Auburn, West Virginia
Current Conditions -  °F | °C
As of 7:15 PM on Friday 21 Nov 2014 (Local Time) from KW22 Reporting Station
NA  
Wind Chill: 25°   Ceiling: NA
Heat Index: 25°   Visibility: 10mi
Dew Point:   Wind: 0mph
Humidity: 43%   Direction: NA
Pressure: 30.45"   Gusts: NA
Location:  39.1°N, 80.86°W
Report Text: KW22 220015Z AUTO 00000KT 10SM M04/M15 A3045 RMK AO2
Loading
Personal Weather Stations






























Interactive Weather Map New forecast layout! Learn more

10-Day Weather Forecast

Advertisements
Track Severe Weather on mobile